Time;durP1;ratioP1;P1;durP2;ratioP2;P2;SDS_P1;SDS_P2;PMS_P1;PMS_P2;Temp;Humidity;BMP_temperature;BMP_pressure;BME280_temperature;BME280_humidity;BME280_pressure;Samples;Min_cycle;Max_cycle;Signal;HPM_P1;HPM_P2
2022/12/07 04:01:24;;;;;;;0.80;0.80;;;5.70;82.70;;;;;;5710278;23;20905;-80
2022/12/07 04:03:50;;;;;;;0.70;0.70;;;5.70;82.60;;;;;;5002198;28;20449;-78
2022/12/07 04:06:17;;;;;;;0.80;0.80;;;5.60;82.60;;;;;;4999850;28;20442;-77
2022/12/07 04:08:44;;;;;;;0.80;0.80;;;5.60;82.80;;;;;;5002965;28;20945;-78
2022/12/07 04:11:11;;;;;;;0.83;0.83;;;5.70;82.90;;;;;;5005155;28;20471;-78
2022/12/07 04:16:18;;;;;;;0.93;0.93;;;5.70;82.90;;;;;;5010096;28;20441;-80
2022/12/07 04:18:46;;;;;;;1.00;1.00;;;5.70;82.90;;;;;;5012208;28;20481;-80
2022/12/07 04:21:13;;;;;;;0.90;0.90;;;5.70;82.80;;;;;;5011545;28;20473;-80
2022/12/07 04:23:40;;;;;;;1.10;1.10;;;5.70;82.70;;;;;;5012488;28;20445;-80
2022/12/07 04:26:07;;;;;;;0.80;0.80;;;5.70;82.70;;;;;;5006943;28;20456;-80
2022/12/07 04:28:33;;;;;;;1.10;1.10;;;5.70;82.60;;;;;;4998048;28;20833;-80
2022/12/07 04:31:00;;;;;;;0.90;0.90;;;5.70;82.40;;;;;;4998359;28;20461;-80
2022/12/07 04:33:27;;;;;;;1.00;1.00;;;5.60;82.40;;;;;;4998260;28;20957;-80
2022/12/07 04:35:55;;;;;;;0.87;0.87;;;5.70;82.40;;;;;;4998397;28;20453;-80
2022/12/07 04:38:21;;;;;;;0.90;0.90;;;5.70;82.40;;;;;;4998825;28;20503;-79
2022/12/07 04:40:48;;;;;;;0.60;0.60;;;5.70;82.20;;;;;;4998902;28;20469;-80
2022/12/07 04:43:15;;;;;;;0.80;0.80;;;5.70;81.70;;;;;;4998037;28;20965;-80
2022/12/07 04:45:46;;;;;;;0.70;0.70;;;5.70;81.10;;;;;;4998474;28;20457;-80
2022/12/07 04:48:13;;;;;;;0.70;0.70;;;5.70;80.80;;;;;;4997741;28;20437;-80
2022/12/07 04:50:40;;;;;;;0.70;0.70;;;5.70;80.50;;;;;;4998396;28;20497;-80
2022/12/07 04:53:08;;;;;;;0.63;0.63;;;5.70;80.40;;;;;;4998519;28;20449;-79
2022/12/07 04:55:35;;;;;;;0.80;0.80;;;5.70;80.20;;;;;;4998006;28;20457;-80
2022/12/07 04:58:01;;;;;;;0.77;0.77;;;5.70;80.40;;;;;;4997800;28;20484;-80
2022/12/07 05:00:28;;;;;;;0.70;0.70;;;5.70;80.10;;;;;;4997308;28;20446;-79
2022/12/07 05:02:55;;;;;;;0.70;0.70;;;5.70;79.70;;;;;;4997221;28;20464;-80
2022/12/07 05:05:21;;;;;;;0.63;0.63;;;5.60;79.20;;;;;;4998170;28;20453;-79
2022/12/07 05:07:48;;;;;;;0.70;0.70;;;5.40;79.10;;;;;;4997917;28;20449;-79
2022/12/07 05:10:16;;;;;;;0.80;0.80;;;5.30;79.60;;;;;;4998432;28;20449;-80
2022/12/07 05:12:43;;;;;;;0.70;0.70;;;5.40;79.60;;;;;;4997942;28;20489;-79
2022/12/07 05:15:10;;;;;;;0.67;0.67;;;5.10;78.70;;;;;;4998193;28;20821;-79
2022/12/07 05:17:37;;;;;;;0.60;0.60;;;5.00;79.00;;;;;;4997906;28;20477;-79
2022/12/07 05:20:05;;;;;;;0.70;0.70;;;4.80;79.90;;;;;;4997785;28;20449;-79
2022/12/07 05:22:32;;;;;;;0.60;0.60;;;4.70;80.60;;;;;;5001271;28;20476;-79
2022/12/07 05:24:58;;;;;;;0.60;0.60;;;4.70;81.00;;;;;;5003389;28;20445;-79
2022/12/07 05:27:26;;;;;;;0.80;0.80;;;4.60;81.10;;;;;;5003150;28;20465;-79
2022/12/07 05:29:53;;;;;;;0.80;0.80;;;4.50;81.80;;;;;;5002589;28;20468;-79
2022/12/07 05:32:20;;;;;;;0.80;0.80;;;4.30;82.80;;;;;;5002422;28;20851;-79
2022/12/07 05:34:47;;;;;;;0.70;0.70;;;4.10;83.90;;;;;;5002028;28;20457;-79
2022/12/07 05:37:13;;;;;;;0.77;0.77;;;4.00;84.60;;;;;;5002223;28;20508;-79
2022/12/07 05:39:42;;;;;;;0.70;0.70;;;4.00;84.90;;;;;;5002346;28;20485;-79
2022/12/07 05:42:14;;;;;;;0.80;0.80;;;4.00;84.80;;;;;;5000469;28;20475;-79
2022/12/07 05:44:43;;;;;;;0.80;0.80;;;4.00;84.90;;;;;;5000946;28;20930;-79
2022/12/07 05:47:10;;;;;;;0.83;0.83;;;4.10;85.10;;;;;;5000849;28;20819;-79
2022/12/07 05:49:36;;;;;;;0.73;0.73;;;4.20;84.50;;;;;;5000648;28;20934;-79
2022/12/07 05:52:04;;;;;;;0.70;0.70;;;4.30;84.20;;;;;;5000714;28;20476;-79
2022/12/07 05:54:31;;;;;;;0.60;0.60;;;4.40;83.40;;;;;;4999862;28;20445;-80
2022/12/07 05:56:58;;;;;;;0.77;0.77;;;4.50;82.90;;;;;;4995943;28;20452;-80
2022/12/07 05:59:23;;;;;;;0.60;0.60;;;4.60;82.60;;;;;;5000960;28;20863;-80
2022/12/07 06:01:52;;;;;;;0.77;0.77;;;4.60;82.20;;;;;;5000778;28;20477;-79
2022/12/07 06:04:20;;;;;;;0.70;0.70;;;4.70;81.70;;;;;;5000517;28;20206;-79
2022/12/07 06:06:46;;;;;;;0.70;0.70;;;4.70;81.40;;;;;;5000593;28;20976;-79
2022/12/07 06:09:14;;;;;;;0.60;0.60;;;4.80;80.90;;;;;;5001417;28;20453;-79
2022/12/07 06:14:26;;;;;;;0.70;0.70;;;5.00;80.20;;;;;;5001341;28;20501;-79
2022/12/07 06:16:54;;;;;;;0.70;0.70;;;5.00;79.60;;;;;;5000632;28;20449;-79
2022/12/07 06:19:21;;;;;;;0.70;0.70;;;5.00;79.00;;;;;;5001857;28;20481;-79
2022/12/07 06:21:48;;;;;;;0.77;0.77;;;5.00;78.90;;;;;;5001101;28;20481;-79
2022/12/07 06:24:16;;;;;;;0.70;0.70;;;5.10;78.90;;;;;;5000933;28;20484;-80
2022/12/07 06:26:43;;;;;;;0.73;0.73;;;5.00;78.70;;;;;;5001045;28;20449;-80
2022/12/07 06:29:11;;;;;;;0.70;0.70;;;5.10;78.90;;;;;;5000599;28;20441;-79
2022/12/07 06:31:38;;;;;;;0.80;0.80;;;5.10;79.00;;;;;;5001676;28;20465;-80
2022/12/07 06:34:07;;;;;;;0.87;0.87;;;5.10;78.90;;;;;;5001668;28;20449;-79
2022/12/07 06:36:34;;;;;;;0.90;0.90;;;5.10;79.00;;;;;;5000761;28;20449;-80
2022/12/07 06:39:01;;;;;;;0.80;0.80;;;5.00;79.00;;;;;;5001476;28;20492;-80
2022/12/07 06:41:28;;;;;;;0.70;0.70;;;5.00;79.60;;;;;;5000739;28;20473;-80
2022/12/07 06:43:54;;;;;;;0.63;0.63;;;5.00;79.80;;;;;;5000488;28;20465;-79
2022/12/07 06:46:21;;;;;;;0.87;0.87;;;5.10;79.90;;;;;;5000670;28;20453;-80
2022/12/07 06:48:48;;;;;;;0.80;0.80;;;5.10;80.00;;;;;;5000228;28;20441;-80
2022/12/07 06:51:16;;;;;;;0.60;0.60;;;5.20;79.90;;;;;;4999957;28;20473;-80
2022/12/07 06:53:43;;;;;;;0.70;0.70;;;5.30;79.70;;;;;;5000028;28;20450;-79
2022/12/07 06:56:09;;;;;;;0.70;0.70;;;5.30;79.10;;;;;;4999876;28;20449;-80
2022/12/07 06:58:36;;;;;;;0.70;0.70;;;5.30;79.40;;;;;;4999773;28;20896;-80
2022/12/07 07:01:03;;;;;;;0.77;0.77;;;5.20;78.60;;;;;;4999608;28;20485;-79
2022/12/07 07:03:30;;;;;;;0.77;0.77;;;5.10;79.40;;;;;;4998787;28;20450;-79
2022/12/07 07:05:57;;;;;;;0.90;0.90;;;5.10;79.40;;;;;;4998715;28;20453;-79
2022/12/07 07:08:25;;;;;;;0.80;0.80;;;5.00;79.50;;;;;;4999404;28;20449;-79
2022/12/07 07:10:52;;;;;;;0.70;0.70;;;4.90;79.90;;;;;;4998799;28;20477;-80
2022/12/07 07:13:18;;;;;;;0.90;0.90;;;4.60;80.50;;;;;;4998749;28;20476;-79
2022/12/07 07:15:45;;;;;;;0.80;0.80;;;4.30;81.70;;;;;;4998451;28;20904;-79
2022/12/07 07:18:12;;;;;;;0.83;0.83;;;4.30;82.80;;;;;;4998706;28;20961;-80
2022/12/07 07:20:39;;;;;;;0.90;0.90;;;4.20;83.40;;;;;;4998666;28;20449;-80
2022/12/07 07:23:05;;;;;;;0.93;0.93;;;4.30;83.90;;;;;;4997934;28;20441;-78
2022/12/07 07:25:34;;;;;;;0.97;0.97;;;4.40;83.30;;;;;;4997413;28;20453;-79
2022/12/07 07:28:01;;;;;;;0.90;0.90;;;4.50;83.20;;;;;;4999015;28;20850;-80
2022/12/07 07:30:28;;;;;;;0.90;0.90;;;4.60;83.10;;;;;;4998271;28;20446;-81
2022/12/07 07:32:57;;;;;;;1.00;1.00;;;4.70;82.50;;;;;;4997960;28;20452;-80
2022/12/07 07:35:24;;;;;;;0.87;0.87;;;4.90;82.10;;;;;;4998681;28;20480;-80
2022/12/07 07:37:51;;;;;;;0.90;0.90;;;4.80;81.60;;;;;;4998975;28;20472;-80
2022/12/07 07:40:18;;;;;;;1.10;0.90;;;4.80;82.20;;;;;;4998493;28;20489;-80
2022/12/07 07:42:48;;;;;;;0.73;0.73;;;4.80;81.80;;;;;;4997977;28;20473;-80
2022/12/07 07:45:15;;;;;;;0.77;0.77;;;4.70;82.20;;;;;;4998364;28;20458;-80
2022/12/07 07:47:41;;;;;;;0.90;0.90;;;4.70;82.70;;;;;;4997938;28;20452;-80
2022/12/07 07:50:09;;;;;;;0.77;0.77;;;4.60;82.50;;;;;;4997225;28;20449;-79
2022/12/07 07:52:36;;;;;;;0.77;0.77;;;4.60;82.70;;;;;;4997223;28;20921;-79
2022/12/07 07:55:03;;;;;;;0.90;0.90;;;4.60;82.90;;;;;;4997988;28;20973;-80
2022/12/07 07:57:29;;;;;;;0.90;0.90;;;4.70;83.00;;;;;;4997825;28;20981;-80
2022/12/07 07:59:57;;;;;;;0.90;0.90;;;4.90;82.70;;;;;;4997415;28;20482;-79
2022/12/07 08:02:24;;;;;;;0.80;0.80;;;5.00;82.30;;;;;;4996188;28;20829;-75
2022/12/07 08:04:51;;;;;;;0.80;0.80;;;5.10;82.20;;;;;;4999459;28;20452;-80
2022/12/07 08:07:18;;;;;;;0.80;0.80;;;5.30;81.80;;;;;;5003289;28;20452;-79
2022/12/07 08:09:44;;;;;;;0.80;0.80;;;5.30;81.60;;;;;;4999591;28;20449;-80
2022/12/07 08:12:11;;;;;;;0.80;0.80;;;5.40;81.30;;;;;;4998465;28;20469;-80
2022/12/07 08:14:38;;;;;;;0.90;0.90;;;5.50;81.00;;;;;;4998454;28;20468;-80
2022/12/07 08:17:06;;;;;;;0.70;0.70;;;5.40;80.30;;;;;;4998493;28;20453;-80
2022/12/07 08:19:33;;;;;;;0.80;0.80;;;5.40;80.40;;;;;;4999475;28;20496;-80
2022/12/07 08:22:00;;;;;;;0.80;0.80;;;5.50;80.20;;;;;;4998668;28;20469;-80
2022/12/07 08:24:27;;;;;;;0.70;0.70;;;5.30;80.10;;;;;;5000012;28;20828;-80
2022/12/07 08:26:53;;;;;;;0.83;0.83;;;5.30;80.10;;;;;;5001933;28;20456;-79
2022/12/07 08:29:20;;;;;;;0.70;0.70;;;5.00;80.40;;;;;;5001878;28;20447;-80
2022/12/07 08:31:47;;;;;;;0.90;0.90;;;5.10;80.70;;;;;;5001380;28;20480;-79
2022/12/07 08:34:15;;;;;;;0.80;0.80;;;5.20;81.00;;;;;;5002020;28;20449;-80
2022/12/07 08:36:42;;;;;;;0.90;0.90;;;5.30;80.70;;;;;;5002007;28;20464;-80
2022/12/07 08:39:09;;;;;;;0.80;0.80;;;5.10;80.10;;;;;;5003003;28;20484;-80
2022/12/07 08:41:36;;;;;;;0.80;0.80;;;5.10;80.60;;;;;;5002661;28;20473;-80
2022/12/07 08:44:03;;;;;;;0.80;0.80;;;5.10;80.90;;;;;;5002179;28;20464;-78
2022/12/07 08:46:36;;;;;;;0.80;0.80;;;5.20;80.90;;;;;;5003124;28;20835;-80
2022/12/07 08:49:06;;;;;;;1.00;0.90;;;5.40;80.90;;;;;;5002450;28;20455;-80
2022/12/07 08:51:34;;;;;;;1.00;1.00;;;5.40;79.90;;;;;;5002300;28;20474;-80
2022/12/07 08:54:04;;;;;;;0.93;0.93;;;5.40;79.20;;;;;;5001722;28;20445;-80
2022/12/07 08:56:31;;;;;;;0.60;0.60;;;5.30;79.20;;;;;;5001019;28;20445;-80
2022/12/07 08:58:58;;;;;;;0.77;0.77;;;5.30;79.00;;;;;;5000596;28;20491;-80
2022/12/07 09:01:25;;;;;;;0.70;0.70;;;5.30;79.20;;;;;;5005104;28;20477;-80
2022/12/07 09:03:52;;;;;;;0.70;0.70;;;5.20;79.30;;;;;;5011809;28;20469;-80
2022/12/07 09:06:19;;;;;;;0.70;0.70;;;5.30;79.80;;;;;;5011844;28;20473;-80
2022/12/07 09:08:51;;;;;;;0.80;0.80;;;5.40;79.60;;;;;;5011730;28;20532;-81
2022/12/07 09:11:18;;;;;;;0.77;0.77;;;5.50;78.60;;;;;;5010885;28;20820;-80
2022/12/07 09:13:45;;;;;;;0.80;0.80;;;5.60;78.90;;;;;;5011435;28;20825;-80
2022/12/07 09:16:12;;;;;;;0.80;0.80;;;5.60;78.20;;;;;;5011778;28;20532;-81
2022/12/07 09:18:39;;;;;;;0.60;0.60;;;5.70;78.60;;;;;;5011367;28;20449;-80
2022/12/07 09:21:06;;;;;;;0.70;0.70;;;5.70;78.30;;;;;;5010814;28;20951;-80
2022/12/07 09:23:33;;;;;;;0.80;0.80;;;5.80;78.20;;;;;;5012154;28;20480;-81
2022/12/07 09:26:02;;;;;;;0.60;0.60;;;5.90;77.40;;;;;;5011498;28;20441;-79
2022/12/07 09:28:29;;;;;;;0.90;0.90;;;5.80;77.00;;;;;;5010875;28;20450;-80
2022/12/07 09:30:55;;;;;;;0.90;0.90;;;5.80;76.90;;;;;;5006151;28;21005;-80
2022/12/07 09:33:22;;;;;;;0.70;0.70;;;5.60;75.80;;;;;;5004615;28;20449;-80
2022/12/07 09:35:51;;;;;;;0.60;0.60;;;5.70;76.80;;;;;;5003929;28;20453;-79
2022/12/07 09:38:19;;;;;;;0.80;0.80;;;5.70;76.10;;;;;;5003505;28;20817;-80
2022/12/07 09:40:46;;;;;;;0.83;0.83;;;5.70;76.60;;;;;;5002859;28;20489;-80
2022/12/07 09:43:17;;;;;;;0.87;0.87;;;5.90;76.70;;;;;;5002848;28;20460;-80
2022/12/07 09:45:47;;;;;;;0.73;0.73;;;5.80;75.50;;;;;;5001413;28;20438;-79
2022/12/07 09:48:19;;;;;;;0.60;0.60;;;5.80;76.10;;;;;;5000064;28;20951;-81
2022/12/07 09:50:46;;;;;;;0.87;0.87;;;6.00;76.30;;;;;;5000499;28;20469;-80
2022/12/07 09:53:26;;;;;;;0.70;0.70;;;6.10;76.40;;;;;;5001182;28;20454;-80
2022/12/07 09:55:53;;;;;;;0.70;0.70;;;6.30;75.90;;;;;;5001367;28;20442;-80
2022/12/07 09:58:26;;;;;;;0.70;0.70;;;6.20;74.90;;;;;;5003923;28;20508;-80
2022/12/07 10:00:56;;;;;;;0.77;0.77;;;6.20;75.10;;;;;;5000000;28;20500;-79
2022/12/07 10:03:23;;;;;;;0.60;0.60;;;6.20;75.30;;;;;;5000410;28;20437;-80
2022/12/07 10:05:52;;;;;;;0.60;0.60;;;6.30;75.20;;;;;;4999573;28;20457;-79
2022/12/07 10:08:20;;;;;;;0.77;0.77;;;6.30;75.10;;;;;;4998287;28;20491;-80
2022/12/07 10:10:50;;;;;;;0.70;0.70;;;6.30;74.10;;;;;;5000607;28;20472;-80
2022/12/07 10:13:22;;;;;;;0.80;0.80;;;6.20;73.80;;;;;;5004258;28;20442;-80
2022/12/07 10:15:52;;;;;;;0.67;0.67;;;6.20;74.50;;;;;;5009364;28;20448;-79
2022/12/07 10:18:28;;;;;;;0.60;0.60;;;6.10;74.10;;;;;;5002947;28;20453;-80
2022/12/07 10:21:07;;;;;;;0.60;0.60;;;6.20;73.50;;;;;;4996726;28;20509;-78
2022/12/07 10:23:34;;;;;;;0.70;0.70;;;6.10;73.60;;;;;;4997788;28;20439;-79
2022/12/07 10:26:20;;;;;;;0.70;0.70;;;6.10;74.40;;;;;;4998116;28;20464;-78
2022/12/07 10:28:49;;;;;;;0.60;0.60;;;6.20;75.10;;;;;;4998798;28;20437;-78
2022/12/07 10:31:19;;;;;;;0.60;0.60;;;6.40;75.20;;;;;;4998060;28;20497;-80
2022/12/07 10:33:51;;;;;;;0.70;0.70;;;6.50;74.40;;;;;;5000382;28;20453;-79
2022/12/07 10:36:21;;;;;;;0.70;0.70;;;6.80;74.40;;;;;;5000346;28;20491;-80
2022/12/07 10:38:50;;;;;;;0.60;0.60;;;6.80;72.30;;;;;;5000090;28;20818;-80
2022/12/07 10:41:17;;;;;;;0.70;0.70;;;6.70;73.10;;;;;;5008686;28;20496;-80
2022/12/07 10:43:53;;;;;;;0.60;0.60;;;6.80;73.80;;;;;;5006993;28;20525;-79
2022/12/07 10:47:09;;;;;;;0.60;0.60;;;6.80;73.90;;;;;;5007458;28;20449;-80
2022/12/07 10:50:05;;;;;;;0.70;0.70;;;6.80;72.60;;;;;;5006880;28;20453;-79
2022/12/07 10:52:56;;;;;;;0.60;0.60;;;7.00;73.70;;;;;;5004903;28;20473;-79
2022/12/07 10:55:30;;;;;;;0.70;0.70;;;6.90;73.20;;;;;;5000104;28;20807;-79
2022/12/07 10:58:17;;;;;;;0.70;0.70;;;6.80;72.50;;;;;;4999825;28;20433;-79
2022/12/07 11:00:55;;;;;;;0.60;0.60;;;6.70;73.10;;;;;;4999950;28;20497;-79
2022/12/07 11:03:47;;;;;;;0.70;0.70;;;6.70;72.90;;;;;;5000219;28;20915;-81
2022/12/07 11:06:24;;;;;;;0.80;0.80;;;6.60;72.70;;;;;;4999703;28;20445;-80
2022/12/07 11:09:03;;;;;;;0.60;0.60;;;6.60;73.30;;;;;;5000270;28;20790;-80
2022/12/07 11:11:35;;;;;;;0.70;0.70;;;6.70;73.30;;;;;;5000808;28;20994;-80
2022/12/07 11:14:13;;;;;;;0.60;0.60;;;7.00;73.30;;;;;;4998339;28;20578;-80
2022/12/07 11:16:53;;;;;;;0.60;0.60;;;7.00;73.20;;;;;;4997839;28;20430;-80
2022/12/07 11:19:35;;;;;;;0.80;0.80;;;7.00;71.60;;;;;;4996986;28;20437;-79
2022/12/07 11:22:06;;;;;;;0.60;0.60;;;6.60;72.80;;;;;;4997263;28;20480;-80
2022/12/07 11:24:42;;;;;;;0.60;0.60;;;6.70;73.80;;;;;;4998147;28;20426;-80
2022/12/07 11:27:20;;;;;;;0.70;0.70;;;6.80;73.10;;;;;;4998135;28;20441;-80
2022/12/07 11:30:11;;;;;;;0.90;0.90;;;6.80;72.40;;;;;;4999108;28;20430;-79
2022/12/07 11:32:52;;;;;;;0.73;0.73;;;6.60;72.50;;;;;;4998766;28;20478;-79
2022/12/07 11:35:28;;;;;;;0.73;0.73;;;6.70;73.40;;;;;;4996710;28;20429;-79
2022/12/07 11:38:00;;;;;;;0.70;0.70;;;6.80;73.40;;;;;;4998470;28;20448;-80
2022/12/07 11:40:34;;;;;;;0.80;0.80;;;7.00;73.10;;;;;;4997627;28;20475;-80
2022/12/07 11:43:05;;;;;;;0.70;0.70;;;7.00;72.90;;;;;;4995763;28;20533;-78
2022/12/07 11:45:34;;;;;;;0.70;0.70;;;7.10;72.50;;;;;;4997731;28;20448;-79
2022/12/07 11:48:04;;;;;;;0.70;0.70;;;7.00;73.00;;;;;;4995561;28;20939;-79
2022/12/07 11:50:37;;;;;;;0.60;0.60;;;7.20;72.80;;;;;;4994352;28;20463;-78
2022/12/07 11:53:11;;;;;;;0.70;0.70;;;7.10;71.70;;;;;;4994577;28;20433;-78
2022/12/07 11:55:45;;;;;;;0.60;0.60;;;6.90;72.30;;;;;;4994971;28;20434;-78
2022/12/07 11:58:34;;;;;;;0.50;0.50;;;6.90;73.40;;;;;;4996962;28;20441;-78
2022/12/07 12:01:14;;;;;;;0.60;0.60;;;6.80;73.40;;;;;;4998343;28;20489;-80
2022/12/07 12:03:46;;;;;;;0.60;0.60;;;6.80;73.20;;;;;;5009924;28;20528;-78
2022/12/07 12:06:13;;;;;;;0.60;0.60;;;6.70;73.70;;;;;;5010426;28;20434;-79
2022/12/07 12:08:47;;;;;;;0.60;0.60;;;6.80;74.10;;;;;;5010835;28;20512;-79
2022/12/07 12:11:25;;;;;;;0.60;0.60;;;6.80;73.20;;;;;;5010051;28;20541;-78
2022/12/07 12:14:18;;;;;;;0.60;0.60;;;6.80;74.00;;;;;;5009660;28;20437;-78
2022/12/07 12:17:04;;;;;;;0.70;0.70;;;6.90;74.00;;;;;;5010114;28;20981;-78
2022/12/07 12:19:38;;;;;;;0.60;0.60;;;7.00;74.30;;;;;;5008998;28;20451;-77
2022/12/07 12:22:15;;;;;;;0.53;0.53;;;7.10;74.20;;;;;;5007806;28;20543;-77
2022/12/07 12:24:44;;;;;;;0.67;0.67;;;7.20;73.20;;;;;;5009219;28;20434;-78
2022/12/07 12:27:19;;;;;;;0.97;0.93;;;7.20;73.00;;;;;;5009023;28;20459;-77
2022/12/07 12:29:54;;;;;;;0.60;0.60;;;7.20;73.00;;;;;;5009253;28;20449;-77
2022/12/07 12:32:23;;;;;;;0.60;0.60;;;7.20;73.30;;;;;;5009396;28;20473;-78
2022/12/07 12:35:23;;;;;;;0.60;0.60;;;7.20;73.40;;;;;;5009723;28;20449;-78
2022/12/07 12:37:52;;;;;;;0.70;0.70;;;7.30;73.40;;;;;;5010526;28;20480;-78
2022/12/07 12:40:43;;;;;;;0.50;0.50;;;7.20;73.50;;;;;;5010504;28;20483;-78
2022/12/07 12:43:43;;;;;;;0.60;0.60;;;7.20;73.30;;;;;;5012084;28;20430;-78
2022/12/07 12:46:49;;;;;;;0.63;0.63;;;7.10;74.00;;;;;;5010269;28;20445;-79
2022/12/07 12:49:38;;;;;;;0.60;0.60;;;7.20;74.20;;;;;;5010168;28;20499;-79
2022/12/07 12:52:50;;;;;;;0.60;0.60;;;7.30;74.10;;;;;;5010116;28;20468;-78
2022/12/07 12:55:23;;;;;;;0.60;0.60;;;7.30;74.60;;;;;;5011286;28;20438;-80
2022/12/07 12:58:29;;;;;;;0.70;0.60;;;7.20;75.00;;;;;;5010378;28;20810;-77
2022/12/07 13:01:29;;;;;;;0.60;0.60;;;7.20;75.10;;;;;;5011360;28;20540;-81
2022/12/07 13:03:57;;;;;;;0.60;0.60;;;7.20;75.40;;;;;;5011502;28;20542;-81
2022/12/07 13:06:35;;;;;;;0.60;0.60;;;7.20;75.40;;;;;;5012545;28;20820;-81
2022/12/07 13:09:02;;;;;;;0.60;0.60;;;7.20;75.60;;;;;;5011688;28;20520;-80
2022/12/07 13:11:34;;;;;;;0.73;0.73;;;7.30;75.70;;;;;;5011299;28;20532;-82
2022/12/07 13:14:40;;;;;;;0.60;0.60;;;7.20;76.20;;;;;;5011437;28;20430;-81
2022/12/07 13:17:09;;;;;;;0.80;0.80;;;7.30;75.90;;;;;;5010273;28;20502;-78
2022/12/07 13:20:01;;;;;;;0.70;0.70;;;7.20;75.90;;;;;;5009640;28;20464;-78
2022/12/07 13:22:44;;;;;;;0.60;0.60;;;7.20;76.00;;;;;;5010493;28;20453;-79
2022/12/07 13:25:13;;;;;;;0.60;0.60;;;7.20;76.10;;;;;;5009570;28;20505;-79
2022/12/07 13:27:44;;;;;;;0.60;0.60;;;7.20;76.00;;;;;;5009913;28;20533;-79
2022/12/07 13:30:17;;;;;;;0.70;0.70;;;7.30;76.10;;;;;;5010210;28;20453;-80
2022/12/07 13:32:44;;;;;;;0.60;0.60;;;7.30;76.00;;;;;;5010445;28;20477;-79
2022/12/07 13:35:30;;;;;;;0.60;0.60;;;7.30;75.60;;;;;;5010484;28;20456;-80
2022/12/07 13:37:58;;;;;;;0.63;0.63;;;7.20;75.80;;;;;;5010670;28;20533;-81
2022/12/07 13:40:25;;;;;;;0.70;0.70;;;7.20;76.00;;;;;;5010183;28;21002;-81
2022/12/07 13:43:00;;;;;;;0.63;0.63;;;7.30;75.90;;;;;;5010342;28;20446;-82
2022/12/07 13:48:15;;;;;;;0.60;0.60;;;7.30;74.90;;;;;;5008969;28;20492;-80
2022/12/07 13:50:42;;;;;;;0.70;0.70;;;7.30;74.90;;;;;;5009569;28;20474;-75
2022/12/07 13:53:15;;;;;;;0.60;0.60;;;7.30;74.70;;;;;;5009841;28;20453;-81
2022/12/07 13:55:46;;;;;;;0.50;0.50;;;7.40;75.00;;;;;;5009764;28;20939;-81
2022/12/07 13:58:15;;;;;;;0.60;0.60;;;7.50;74.40;;;;;;5009800;28;20450;-81
2022/12/07 14:00:43;;;;;;;0.57;0.57;;;7.50;74.00;;;;;;5008769;28;20580;-79
2022/12/07 14:03:29;;;;;;;0.60;0.60;;;7.50;73.80;;;;;;5009313;28;20433;-80
2022/12/07 14:06:27;;;;;;;0.50;0.50;;;7.40;74.00;;;;;;5010104;28;20430;-82
2022/12/07 14:09:18;;;;;;;0.60;0.60;;;7.50;73.90;;;;;;4966333;28;20461;-80
2022/12/07 14:11:45;;;;;;;0.60;0.60;;;7.50;73.70;;;;;;5008604;28;20469;-80
2022/12/07 14:14:18;;;;;;;0.60;0.60;;;7.50;73.70;;;;;;5009195;28;20465;-82
2022/12/07 14:16:55;;;;;;;0.67;0.67;;;7.50;73.90;;;;;;5009469;28;20437;-82
2022/12/07 14:19:42;;;;;;;0.80;0.80;;;7.50;73.50;;;;;;5009031;28;20513;-81
2022/12/07 14:22:18;;;;;;;0.60;0.60;;;7.40;73.70;;;;;;5008294;28;20485;-81
2022/12/07 14:24:46;;;;;;;0.60;0.60;;;7.40;73.60;;;;;;5009477;28;20512;-80
2022/12/07 14:27:19;;;;;;;0.70;0.70;;;7.40;73.20;;;;;;5009239;28;20536;-80
2022/12/07 14:29:48;;;;;;;0.60;0.60;;;7.30;72.70;;;;;;5008932;28;20442;-79
2022/12/07 14:32:27;;;;;;;0.70;0.70;;;7.30;73.20;;;;;;5009070;28;20466;-80
2022/12/07 14:34:56;;;;;;;0.60;0.60;;;7.30;72.70;;;;;;5009077;28;20440;-79
2022/12/07 14:37:24;;;;;;;0.80;0.80;;;7.30;72.80;;;;;;5008070;28;20591;-80
2022/12/07 14:39:51;;;;;;;0.80;0.80;;;7.30;72.70;;;;;;5008434;28;20459;-80
2022/12/07 14:42:18;;;;;;;0.63;0.63;;;7.30;72.40;;;;;;5007781;28;20576;-81
2022/12/07 14:44:45;;;;;;;0.60;0.60;;;7.30;72.30;;;;;;5007621;28;20549;-81
2022/12/07 14:47:13;;;;;;;0.50;0.50;;;7.20;71.80;;;;;;5007122;28;20831;-81
2022/12/07 14:49:40;;;;;;;0.60;0.60;;;7.10;72.40;;;;;;5006931;28;20477;-81
2022/12/07 14:52:12;;;;;;;0.60;0.60;;;7.10;72.70;;;;;;5007858;28;20532;-78
2022/12/07 14:54:39;;;;;;;0.60;0.60;;;7.10;72.50;;;;;;5006427;28;20444;-81
2022/12/07 14:57:06;;;;;;;0.60;0.60;;;7.00;72.20;;;;;;5008110;28;20465;-82
2022/12/07 14:59:32;;;;;;;0.60;0.60;;;7.10;72.30;;;;;;5007995;28;20499;-81
2022/12/07 15:01:59;;;;;;;0.50;0.50;;;7.10;72.80;;;;;;4998082;28;20891;-81
2022/12/07 15:04:27;;;;;;;0.70;0.70;;;7.00;72.80;;;;;;4998032;28;20464;-81
2022/12/07 15:06:58;;;;;;;0.50;0.50;;;7.10;72.90;;;;;;4998415;28;20467;-81
2022/12/07 15:09:25;;;;;;;0.50;0.50;;;7.00;72.80;;;;;;4998804;28;20453;-81
2022/12/07 15:11:52;;;;;;;0.50;0.50;;;7.10;72.90;;;;;;4998169;28;20466;-81
2022/12/07 15:14:19;;;;;;;0.57;0.57;;;7.10;72.40;;;;;;4999048;28;20453;-82
2022/12/07 15:16:45;;;;;;;0.50;0.50;;;7.10;72.50;;;;;;4998163;28;20452;-81
2022/12/07 15:19:15;;;;;;;0.50;0.50;;;7.10;72.50;;;;;;4997771;28;20453;-81
2022/12/07 15:21:44;;;;;;;0.50;0.50;;;7.10;72.80;;;;;;4999058;28;20493;-81
2022/12/07 15:24:12;;;;;;;0.60;0.60;;;7.20;72.90;;;;;;4997784;28;20452;-81
2022/12/07 15:26:39;;;;;;;0.60;0.60;;;7.20;72.80;;;;;;4999383;28;20456;-81
2022/12/07 15:29:06;;;;;;;0.60;0.60;;;7.20;72.80;;;;;;4996368;28;21006;-81
2022/12/07 15:31:33;;;;;;;0.60;0.60;;;7.10;72.80;;;;;;4995691;28;20469;-81
2022/12/07 15:34:00;;;;;;;0.60;0.60;;;7.10;73.00;;;;;;4997804;28;20453;-80
2022/12/07 15:36:29;;;;;;;0.70;0.70;;;7.10;73.00;;;;;;4999513;28;20861;-82
2022/12/07 15:38:57;;;;;;;0.60;0.60;;;7.10;73.20;;;;;;5001259;28;20556;-81
2022/12/07 15:41:23;;;;;;;0.60;0.60;;;7.00;73.60;;;;;;5000111;28;21021;-82
2022/12/07 15:46:37;;;;;;;0.80;0.80;;;7.00;73.90;;;;;;5000682;28;20409;-82
2022/12/07 15:49:04;;;;;;;0.70;0.70;;;7.00;74.50;;;;;;4999912;28;20445;-80
2022/12/07 15:51:31;;;;;;;0.67;0.67;;;7.00;74.80;;;;;;4999846;28;20465;-81
2022/12/07 15:53:59;;;;;;;0.70;0.70;;;7.00;75.40;;;;;;5000298;28;20449;-82
2022/12/07 15:56:26;;;;;;;0.90;0.90;;;6.90;75.50;;;;;;4999698;28;20456;-81
2022/12/07 15:58:53;;;;;;;0.73;0.73;;;6.90;75.50;;;;;;4999283;28;20456;-81
2022/12/07 16:01:20;;;;;;;0.80;0.80;;;6.90;75.70;;;;;;4999196;28;20501;-82
2022/12/07 16:03:48;;;;;;;0.67;0.67;;;6.70;76.00;;;;;;4999214;28;20461;-82
2022/12/07 16:06:17;;;;;;;0.70;0.70;;;6.70;76.10;;;;;;5003101;28;20827;-83
2022/12/07 16:08:44;;;;;;;0.67;0.67;;;6.70;76.30;;;;;;5002369;28;20449;-81
2022/12/07 16:11:13;;;;;;;0.77;0.77;;;6.60;76.20;;;;;;5001550;28;20477;-82
2022/12/07 16:13:40;;;;;;;0.70;0.70;;;6.60;76.30;;;;;;5002406;28;20812;-80
2022/12/07 16:16:09;;;;;;;0.80;0.80;;;6.50;76.70;;;;;;5000947;28;20453;-81
2022/12/07 16:18:36;;;;;;;0.80;0.80;;;6.40;77.00;;;;;;5000068;28;20445;-80
2022/12/07 16:21:03;;;;;;;0.70;0.70;;;6.30;77.40;;;;;;5002822;28;20488;-80
2022/12/07 16:23:31;;;;;;;0.60;0.60;;;6.30;77.80;;;;;;5006261;28;20507;-81
2022/12/07 16:26:06;;;;;;;0.87;0.87;;;6.30;77.90;;;;;;5010908;28;20445;-81
2022/12/07 16:28:34;;;;;;;0.90;0.90;;;6.30;77.90;;;;;;5012093;28;20432;-80
2022/12/07 16:31:03;;;;;;;0.80;0.80;;;6.20;77.60;;;;;;5010403;28;20469;-79
2022/12/07 16:33:29;;;;;;;0.80;0.80;;;6.00;77.70;;;;;;5008959;28;20456;-81
2022/12/07 16:35:56;;;;;;;0.70;0.70;;;6.10;77.60;;;;;;5004364;28;20457;-83
2022/12/07 16:38:23;;;;;;;0.70;0.70;;;6.20;77.60;;;;;;5004461;28;20458;-83
2022/12/07 16:40:49;;;;;;;0.60;0.60;;;6.20;77.30;;;;;;5005137;28;20480;-83
2022/12/07 16:43:16;;;;;;;0.83;0.83;;;6.20;77.30;;;;;;5003707;28;20441;-79
2022/12/07 16:45:46;;;;;;;0.80;0.80;;;6.10;77.20;;;;;;5000879;28;20460;-81
2022/12/07 16:48:13;;;;;;;0.77;0.77;;;6.10;77.50;;;;;;5003480;28;20453;-80
2022/12/07 16:50:40;;;;;;;0.60;0.60;;;6.10;77.10;;;;;;5003688;28;20795;-79
2022/12/07 16:53:07;;;;;;;0.70;0.70;;;6.10;77.30;;;;;;5001668;28;20852;-80
2022/12/07 16:55:36;;;;;;;0.80;0.80;;;6.10;77.30;;;;;;5002680;28;20938;-80
2022/12/07 16:58:03;;;;;;;0.80;0.80;;;6.00;77.50;;;;;;5002711;28;20460;-80
2022/12/07 17:00:30;;;;;;;0.80;0.80;;;6.00;77.60;;;;;;5001619;28;20457;-80
2022/12/07 17:02:58;;;;;;;0.83;0.83;;;6.00;77.70;;;;;;4999624;28;20492;-79
2022/12/07 17:05:26;;;;;;;0.80;0.80;;;6.00;77.70;;;;;;4998709;28;20449;-81
2022/12/07 17:07:53;;;;;;;0.70;0.70;;;6.10;77.60;;;;;;4999270;28;20492;-79
2022/12/07 17:10:20;;;;;;;1.03;0.90;;;5.80;77.40;;;;;;4999366;28;20449;-79
2022/12/07 17:12:46;;;;;;;0.80;0.80;;;5.50;79.00;;;;;;4997538;28;20457;-78
2022/12/07 17:15:20;;;;;;;0.63;0.63;;;5.40;79.60;;;;;;4997544;28;20457;-80
2022/12/07 17:17:51;;;;;;;0.80;0.80;;;5.50;79.40;;;;;;4997960;28;20754;-78
2022/12/07 17:20:20;;;;;;;0.80;0.80;;;5.60;79.10;;;;;;5000046;28;20812;-79
2022/12/07 17:22:47;;;;;;;0.80;0.80;;;5.50;79.30;;;;;;5000387;28;20490;-79
2022/12/07 17:25:14;;;;;;;0.70;0.70;;;5.50;79.20;;;;;;5001263;28;20457;-80
2022/12/07 17:27:41;;;;;;;0.90;0.90;;;5.60;79.40;;;;;;5001601;28;20456;-79